Latest Weather Observations for Sydney Olympic Park

IDN60801

Issued at 6:05 am EST Friday 22 August 2014 (issued every 30 minutes, with the page automatically refreshed every 10 minutes)

About weather observations | Map of weather stations | Latest weather observations for NSW | Other Formats
Station Details ID: 066212 Name: SYDNEY OLYMPIC PARK AWS (ARCHERY CENTRE) Lat: -33.83 Lon: 151.07 Height: 4.0 m
Data from the previous 72 hours. | See also: Recent months at Sydney Olympic Park
Date/Time
EST
Temp
°C
App
Temp
°C
Dew
Point
Rel
Hum
%
Delta-T
°C
Wind Press
QNH
hPa
Press
MSL
hPa
Rain
since 9 am
mm
Dir
 
Spd
km/h
Gust
km/h
Spd
kts
Gust
kts
22/06:00am 10.8 11.0 10.5 98 0.2 WNW 0 0 0 0 - - 3.4
22/05:30am 10.6 10.7 10.3 98 0.2 WNW 0 0 0 0 - - 3.4
22/05:00am 10.4 10.5 10.1 98 0.2 CALM 0 0 0 0 - - 3.4
22/04:45am 10.8 11.0 10.5 98 0.2 CALM 0 0 0 0 - - 3.4
22/04:39am 10.9 11.1 10.6 98 0.2 CALM 0 0 0 0 - - 3.4
22/04:30am 11.1 11.0 10.8 98 0.2 WNW 2 6 1 3 - - 3.4
22/04:29am 11.1 11.0 10.8 98 0.2 WNW 2 6 1 3 - - 3.4
22/04:00am 11.3 10.5 11.0 98 0.2 WNW 6 7 3 4 - - 3.4
22/03:58am 11.4 10.6 11.1 98 0.2 WNW 6 7 3 4 - - 3.4
22/03:30am 11.6 11.6 11.3 98 0.2 NNW 2 7 1 4 - - 3.2
22/03:04am 11.6 10.9 11.3 98 0.2 NNE 6 9 3 5 - - 2.6
22/03:00am 11.7 11.4 11.4 98 0.2 N 4 9 2 5 - - 2.6
22/02:41am 11.6 11.3 11.3 98 0.2 WNW 4 9 2 5 - - 2.4
22/02:30am 11.6 11.6 11.3 98 0.2 WNW 2 7 1 4 - - 2.4
22/02:22am 11.6 11.3 11.3 98 0.2 NW 4 7 2 4 - - 2.2
22/02:00am 11.5 10.7 11.2 98 0.2 NW 6 9 3 5 - - 2.0
22/01:52am 11.6 10.9 11.3 98 0.2 NW 6 9 3 5 - - 2.0
22/01:39am 11.6 11.6 11.3 98 0.2 W 2 7 1 4 - - 2.0
22/01:30am 11.6 12.0 11.3 98 0.2 CALM 0 0 0 0 - - 2.0
22/01:00am 11.8 11.1 11.5 98 0.2 WNW 6 9 3 5 - - 1.8
22/12:30am 12.0 11.4 11.7 98 0.2 W 6 9 3 5 - - 1.8
22/12:10am 12.0 11.4 11.7 98 0.2 WNW 6 9 3 5 - - 1.8
22/12:00am 12.2 12.0 11.9 98 0.2 NW 4 6 2 3 - - 1.8
 
Date/Time
EST
Temp
°C
App
Temp
°C
Dew
Point
Rel
Hum
%
Delta-T
°C
Wind Press
QNH
hPa
Press
MSL
hPa
Rain
since 9 am
mm
Dir
 
Spd
km/h
Gust
km/h
Spd
kts
Gust
kts
21/11:52pm 12.2 12.4 11.9 98 0.2 N 2 7 1 4 - - 1.8
21/11:30pm 12.2 11.7 11.9 98 0.2 NNW 6 7 3 4 - - 1.4
21/11:00pm 12.4 13.1 12.1 98 0.2 S 0 6 0 3 - - 1.4
21/10:30pm 12.6 12.0 12.3 98 0.2 SSW 7 11 4 6 - - 1.4
21/10:00pm 13.0 12.5 12.7 98 0.2 S 7 11 4 6 - - 1.4
21/09:30pm 13.0 12.5 12.7 98 0.2 SSW 7 15 4 8 - - 1.4
21/09:06pm 13.0 12.7 12.7 98 0.2 SSW 6 9 3 5 - - 1.4
21/09:00pm 13.0 12.7 12.7 98 0.2 S 6 15 3 8 - - 1.4
21/08:49pm 13.1 11.9 12.8 98 0.2 S 11 19 6 10 - - 1.4
21/08:30pm 13.1 11.9 12.8 98 0.2 S 11 20 6 11 - - 1.2
21/08:00pm 13.0 12.1 12.7 98 0.2 S 9 17 5 9 - - 1.2
21/07:55pm 13.0 12.1 12.7 98 0.2 S 9 13 5 7 - - 1.2
21/07:32pm 13.2 12.0 12.7 97 0.3 SSW 11 20 6 11 - - 0.8
21/07:30pm 13.3 12.1 12.7 96 0.3 SSW 11 20 6 11 - - 0.4
21/07:00pm 13.3 12.8 12.8 97 0.3 SSW 7 13 4 7 - - 0.4
21/06:30pm 13.5 11.8 12.6 94 0.5 SSE 13 20 7 11 - - 0.2
21/06:02pm 14.1 13.3 12.8 92 0.7 S 9 13 5 7 - - 0.2
21/06:00pm 14.2 13.4 12.8 91 0.8 S 9 13 5 7 - - 0.2
21/05:48pm 14.3 12.6 12.5 89 1.0 SSE 13 22 7 12 - - 0.2
21/05:30pm 14.8 11.8 11.9 83 1.6 S 19 26 10 14 - - 0.0
21/05:00pm 15.1 12.7 11.5 79 1.9 S 15 28 8 15 - - 0.0
21/04:30pm 15.3 12.5 11.5 78 2.0 SSE 17 24 9 13 - - 0.0
21/04:00pm 16.1 13.3 11.5 74 2.5 S 17 30 9 16 - - 0.0
21/03:30pm 16.7 13.5 11.2 70 3.0 S 19 28 10 15 - - 0.0
21/03:00pm 16.4 12.8 10.0 66 3.4 SSE 19 28 10 15 - - 0.0
21/02:30pm 16.1 12.7 10.4 69 3.0 SSE 19 26 10 14 - - 0.0
21/02:00pm 16.7 13.4 11.0 69 3.1 SSE 19 26 10 14 - - 0.0
21/01:30pm 16.8 14.5 11.7 72 2.8 SSE 15 22 8 12 - - 0.0
21/01:00pm 16.2 13.0 11.2 72 2.7 SE 19 24 10 13 - - 0.0
21/12:30pm 16.3 13.9 11.5 73 2.6 SE 15 20 8 11 - - 0.0
21/12:00pm 16.2 14.4 12.2 77 2.2 S 13 17 7 9 - - 0.0
21/11:30am 15.4 13.6 12.0 80 1.8 S 13 20 7 11 - - 0.0
21/11:00am 15.1 14.5 12.4 84 1.5 S 7 15 4 8 - - 0.0
21/10:30am 14.5 14.8 12.2 86 1.2 WNW 2 7 1 4 - - 0.0
21/10:00am 14.1 13.9 13.0 93 0.6 W 6 7 3 4 - - 0.0
21/09:30am 12.1 11.3 11.6 97 0.3 W 7 13 4 7 - - 0.0
21/09:16am 11.6 10.3 11.1 97 0.3 W 9 13 5 7 - - 0.0
21/09:00am 12.3 11.6 12.0 98 0.2 WNW 7 13 4 7 - - 3.2
21/08:41am 11.2 9.7 10.7 97 0.3 WNW 9 13 5 7 - - 3.0
21/08:30am 11.5 10.1 11.0 97 0.3 WNW 9 15 5 8 - - 2.8
21/08:04am 10.2 8.9 9.9 98 0.2 WNW 7 9 4 5 - - 2.8
21/08:00am 10.0 8.6 9.7 98 0.2 WNW 7 9 4 5 - - 2.8
21/07:31am 10.1 8.8 9.8 98 0.2 WNW 7 13 4 7 - - 1.4
21/07:30am 10.0 8.6 9.7 98 0.2 WNW 7 9 4 5 - - 1.4
21/07:00am 9.2 7.8 8.9 98 0.1 NW 6 9 3 5 - - 1.4
21/06:30am 9.0 7.6 8.7 98 0.1 NNW 6 9 3 5 - - 1.4
21/06:00am 8.8 7.3 8.5 98 0.1 WNW 6 9 3 5 - - 1.4
21/05:30am 8.5 6.8 8.2 98 0.1 NW 7 11 4 6 - - 1.4
21/05:00am 8.9 7.3 8.6 98 0.1 WNW 7 13 4 7 - - 1.4
21/04:38am 9.3 7.4 9.0 98 0.1 WNW 9 13 5 7 - - 1.4
21/04:30am 9.3 7.0 9.0 98 0.1 WNW 11 15 6 8 - - 1.4
21/04:00am 9.5 8.2 9.2 98 0.1 W 6 9 3 5 - - 1.2
21/03:30am 9.7 9.2 9.2 97 0.2 NNW 2 7 1 4 - - 0.4
21/03:28am 9.7 9.2 9.2 97 0.2 N 2 7 1 4 - - 0.4
21/03:24am 9.6 8.3 9.1 97 0.2 N 6 9 3 5 - - 0.4
21/03:10am 9.7 8.2 9.2 97 0.2 NW 7 9 4 5 - - 0.4
21/03:04am 9.8 8.5 9.3 97 0.2 NW 6 9 3 5 - - 0.2
21/03:00am 9.8 8.5 9.3 97 0.2 NW 6 7 3 4 - - 0.2
21/02:46am 9.8 9.7 9.3 97 0.2 CALM 0 0 0 0 - - 0.2
21/02:30am 9.8 9.6 9.0 95 0.4 CALM 0 0 0 0 - - 0.2
21/02:00am 9.5 9.3 9.0 97 0.2 CALM 0 0 0 0 - - 0.0
21/01:30am 9.2 8.9 8.6 96 0.3 CALM 0 0 0 0 - - 0.0
21/01:00am 9.8 9.5 8.7 93 0.5 CALM 0 0 0 0 - - 0.0
21/12:30am 10.1 8.7 9.6 97 0.2 NW 7 9 4 5 - - 0.0
21/12:00am 10.2 9.0 9.7 97 0.3 WNW 6 7 3 4 - - 0.0
 
Date/Time
EST
Temp
°C
App
Temp
°C
Dew
Point
Rel
Hum
%
Delta-T
°C
Wind Press
QNH
hPa
Press
MSL
hPa
Rain
since 9 am
mm
Dir
 
Spd
km/h
Gust
km/h
Spd
kts
Gust
kts
20/11:30pm 10.8 10.4 9.6 92 0.6 N 2 9 1 5 - - 0.0
20/11:00pm 9.3 7.9 8.7 96 0.3 W 6 7 3 4 - - 0.0
20/10:30pm 9.3 7.8 8.4 94 0.4 WNW 6 9 3 5 - - 0.0
20/10:00pm 9.7 8.2 8.3 91 0.7 W 6 7 3 4 - - 0.0
20/09:30pm 11.3 9.8 8.5 83 1.4 SW 6 9 3 5 - - 0.0
20/09:00pm 12.4 10.3 8.3 76 2.0 SSW 9 15 5 8 - - 0.0
20/08:30pm 12.5 10.0 8.4 76 2.0 SSE 11 15 6 8 - - 0.0
20/08:00pm 12.6 10.5 8.3 75 2.1 SSE 9 13 5 7 - - 0.0
20/07:30pm 13.4 11.0 8.5 72 2.4 SSE 11 19 6 10 - - 0.0
20/07:00pm 13.8 11.0 8.6 71 2.6 SSE 13 17 7 9 - - 0.0
20/06:30pm 14.1 10.9 8.3 68 2.9 SSE 15 22 8 12 - - 0.0
20/06:00pm 14.3 10.3 8.3 67 3.0 SSE 19 32 10 17 - - 0.0
20/05:30pm 14.4 10.2 8.1 66 3.1 SSE 20 30 11 16 - - 0.0
20/05:00pm 14.8 11.1 7.8 63 3.5 SSE 17 24 9 13 - - 0.0
20/04:30pm 14.9 10.7 7.5 61 3.7 SSE 19 30 10 16 - - 0.0
20/04:00pm 15.1 11.2 6.9 58 4.0 SSE 17 24 9 13 - - 0.0
20/03:30pm 15.2 11.2 6.7 57 4.1 SSE 17 26 9 14 - - 0.0
20/03:00pm 15.5 11.5 6.8 56 4.3 S 17 24 9 13 - - 0.0
20/02:30pm 15.3 11.4 7.3 59 4.0 S 17 24 9 13 - - 0.0
20/02:00pm 15.5 11.8 7.8 60 3.8 S 17 24 9 13 - - 0.0
20/01:30pm 15.5 11.3 7.3 58 4.1 SSE 19 28 10 15 - - 0.0
20/01:00pm 15.5 11.6 7.3 58 4.1 SSW 17 20 9 11 - - 0.0
20/12:30pm 15.3 11.3 8.1 62 3.6 SSE 19 28 10 15 - - 0.0
20/12:00pm 15.9 12.1 8.9 63 3.6 S 19 26 10 14 - - 0.0
20/11:30am 14.7 10.9 7.7 63 3.5 S 17 32 9 17 - - 0.0
20/11:00am 14.7 11.4 8.2 65 3.3 S 15 20 8 11 - - 0.0
20/10:30am 14.6 12.1 8.1 65 3.2 SW 11 17 6 9 - - 0.0
20/10:00am 14.2 11.4 8.4 68 2.9 SSW 13 20 7 11 - - 0.0
20/09:30am 13.3 10.1 8.6 73 2.4 SW 15 20 8 11 - - 0.0
20/09:00am 13.1 10.6 8.0 71 2.5 SW 11 24 6 13 - - 6.6
20/08:30am 12.4 9.0 7.5 72 2.4 WSW 15 22 8 12 - - 6.6
20/08:00am 12.1 10.7 8.8 80 1.6 WSW 6 13 3 7 - - 6.6
20/07:30am 10.9 8.7 8.0 82 1.4 WSW 9 17 5 9 - - 6.6
20/07:00am 10.6 8.4 7.8 83 1.4 W 9 13 5 7 - - 6.6
20/06:30am 10.9 7.8 7.2 78 1.8 WSW 13 20 7 11 - - 6.6
20/06:00am 11.0 8.6 6.9 76 1.9 W 9 17 5 9 - - 6.6
20/05:30am 11.0 8.5 6.7 75 2.0 WSW 9 15 5 8 - - 6.6
20/05:00am 10.6 8.1 6.7 77 1.8 WSW 9 13 5 7 - - 6.6
20/04:30am 10.6 8.1 6.4 75 2.0 WSW 9 17 5 9 - - 6.6
20/04:00am 10.4 7.5 6.4 76 1.9 W 11 19 6 10 - - 6.6
20/03:30am 10.3 7.8 6.6 78 1.7 W 9 13 5 7 - - 6.6
20/03:00am 9.2 7.2 6.1 81 1.4 W 6 9 3 5 - - 6.6
20/02:30am 9.4 7.2 6.3 81 1.4 W 7 11 4 6 - - 6.6
20/02:00am 9.5 7.3 6.4 81 1.4 W 7 11 4 6 - - 6.6
20/01:30am 10.4 7.8 6.2 75 2.0 W 9 15 5 8 - - 6.6
20/01:00am 10.6 8.1 6.4 75 2.0 WSW 9 15 5 8 - - 6.6
20/12:30am 11.0 8.6 6.9 76 1.9 WSW 9 15 5 8 - - 6.6
20/12:00am 11.4 9.1 7.3 76 2.0 WSW 9 15 5 8 - - 6.6
 
Date/Time
EST
Temp
°C
App
Temp
°C
Dew
Point
Rel
Hum
%
Delta-T
°C
Wind Press
QNH
hPa
Press
MSL
hPa
Rain
since 9 am
mm
Dir
 
Spd
km/h
Gust
km/h
Spd
kts
Gust
kts
19/11:30pm 11.9 9.6 7.6 75 2.1 WSW 9 15 5 8 - - 6.6
19/11:00pm 12.6 10.0 7.7 72 2.4 SW 11 17 6 9 - - 6.6
19/10:30pm 12.9 10.3 7.6 70 2.6 SW 11 19 6 10 - - 6.6
19/10:00pm 13.3 9.9 7.5 68 2.8 SSW 15 24 8 13 - - 6.6
19/09:30pm 13.3 9.9 7.7 69 2.7 SSW 15 24 8 13 - - 6.6
19/09:00pm 13.4 10.5 8.0 70 2.7 SSW 13 22 7 12 - - 6.6
19/08:30pm 13.4 10.6 8.7 73 2.4 SW 13 20 7 11 - - 6.6
19/08:00pm 13.4 10.7 9.1 75 2.2 SSW 13 20 7 11 - - 6.6
19/07:30pm 13.1 10.9 9.4 78 1.9 SW 11 20 6 11 - - 6.6
19/07:00pm 12.8 11.2 10.2 84 1.3 SW 9 15 5 8 - - 6.6
19/06:47pm 12.7 10.8 10.4 86 1.2 SSW 11 19 6 10 - - 6.6
19/06:35pm 12.8 10.4 10.2 84 1.3 SSW 13 28 7 15 - - 6.6
19/06:30pm 12.9 10.9 10.3 84 1.3 SSW 11 20 6 11 - - 6.6
19/06:00pm 13.1 10.5 10.6 85 1.3 SSW 15 30 8 16 - - 6.6
19/05:30pm 12.9 10.9 11.5 91 0.7 SSW 13 26 7 14 - - 6.6
19/05:10pm 12.9 11.1 12.1 95 0.4 SSW 13 20 7 11 - - 6.6
19/05:00pm 12.6 10.8 12.1 97 0.3 SSW 13 24 7 13 - - 6.4
19/04:47pm 12.9 11.2 12.3 96 0.3 S 13 20 7 11 - - 5.8
19/04:30pm 13.1 11.3 12.2 94 0.5 SSW 13 22 7 12 - - 5.0
19/04:00pm 13.4 10.8 12.1 92 0.7 SSW 17 24 9 13 - - 4.8
19/03:30pm 13.7 11.3 12.6 93 0.6 SSW 17 30 9 16 - - 4.6
19/03:00pm 13.5 11.0 12.2 92 0.7 SSW 17 28 9 15 - - 4.6
19/02:55pm 13.6 10.7 12.3 92 0.7 SSW 19 35 10 19 - - 4.6
19/02:30pm 13.4 11.8 12.8 96 0.3 SSW 13 20 7 11 - - 4.2
19/02:22pm 13.7 11.2 12.4 92 0.7 SW 17 26 9 14 - - 3.4
19/02:00pm 13.9 11.9 12.8 93 0.6 S 15 24 8 13 - - 3.0
19/01:56pm 13.8 11.9 13.0 95 0.4 S 15 30 8 16 - - 3.0
19/01:37pm 13.7 12.2 13.1 96 0.3 S 13 26 7 14 - - 2.8
19/01:30pm 14.0 12.2 13.4 96 0.3 S 15 24 8 13 - - 2.6
19/01:26pm 13.9 11.7 13.3 96 0.3 S 17 26 9 14 - - 2.6
19/01:00pm 13.9 11.1 12.5 91 0.8 S 19 30 10 16 - - 2.4
19/12:36pm 14.7 9.9 11.5 81 1.7 S 28 44 15 24 - - 1.0
19/12:30pm 16.1 11.1 10.8 71 2.8 S 28 48 15 26 - - 1.0
19/12:22pm 16.6 11.5 10.7 68 3.1 S 28 48 15 26 - - 1.0
19/12:00pm 16.9 12.5 11.6 71 2.9 S 26 43 14 23 - - 1.0
19/11:30am 17.1 14.1 12.4 74 2.6 S 20 39 11 21 - - 1.0
19/11:00am 16.4 13.3 11.6 73 2.6 S 19 35 10 19 - - 1.0
19/10:30am 16.1 13.7 12.5 79 2.0 S 17 30 9 16 - - 1.0
19/10:00am 15.2 12.6 13.1 87 1.2 SSW 19 30 10 16 - - 0.8
19/09:32am 14.3 12.7 13.8 97 0.3 SSW 15 22 8 12 - - 0.8
19/09:30am 14.3 13.1 14.0 98 0.2 SSW 13 22 7 12 - - 0.8
19/09:02am 13.5 12.4 13.2 98 0.2 WSW 11 19 6 10 - - 0.2
19/09:00am 13.6 12.9 13.3 98 0.2 WSW 9 19 5 10 - - 73.4
19/08:31am 13.6 12.9 13.3 98 0.2 WSW 9 19 5 10 - - 73.4
19/08:30am 13.6 12.6 13.3 98 0.2 SW 11 19 6 10 - - 73.4
19/08:00am 13.5 11.6 13.0 97 0.3 SSW 15 30 8 16 - - 72.4
19/07:58am 13.6 11.7 13.1 97 0.3 SSW 15 30 8 16 - - 72.2
19/07:53am 13.7 11.5 13.2 97 0.3 SSW 17 30 9 16 - - 71.6
19/07:34am 13.5 10.7 13.2 98 0.2 SSW 20 30 11 16 - - 71.6
19/07:30am 13.2 12.4 12.9 98 0.2 WSW 9 15 5 8 - - 71.2
19/07:00am 13.3 12.2 13.0 98 0.2 SSW 11 20 6 11 - - 71.2
19/06:47am 13.4 11.5 13.1 98 0.2 SSW 15 24 8 13 - - 71.2
19/06:30am 13.0 11.4 12.7 98 0.2 S 13 19 7 10 - - 71.0

Other Formats:

Comma delimited format used in spreadsheet applications
http://www.bom.gov.au/fwo/IDN60801/IDN60801.95765.axf

JavaScript Object Notation format (JSON) in row-major order
http://www.bom.gov.au/fwo/IDN60801/IDN60801.95765.json